Hauptseite
METAR-TAF:

METAR-TAF

Flughäfen :

Flughafen Köln/Bonn

Köln, Deutschland

Breite: 50-52N, Länge: 007-10E, Höhe: 91 m

Beobachtung

Neuester Wetterbericht von vor 34 Minuten, um 11:20 UTC
Wind 5 kt aus Südost, variierte zwischen Ost und Süd
Temperatur 11°C
Luftfeuchtigkeit 76%
Luftdruck 1029 hPa
Sichtweite 10 km oder mehr
Leicht bewölkt in der Höhe von 1400 ft

METAR: EDDK 141120Z 14005KT 090V180 9999 FEW014 11/07 Q1029 NOSIG

Zeit: 12:54 (11:54 UTC)

Prognose

Neuester Wetterbericht von vor 54 Minuten, um 11:00 UTC
Gültige Prognose vom 14 um 12 UTC bis 15 um 18 UTC
Wind 8 kt aus Südost
Sichtweite 10 km oder mehr
keine Wolken unter 1500 m und keine Kumulonimbus oder Gewitterwolken
Zeitweise
vom 15 um 03 UTC bis 15 um 09 UTC
Durchbrochene Bewölkung in der Höhe von 1000 ft

TAF: EDDK 141100Z 1412/1518 13008KT CAVOK TEMPO 1503/1509 BKN010

Wetterbeobachtungen und Prognosen von mehr als 4000 Flughäfen (METAR und TAF Bericht).

Die verfügbaren Stationen werden durch gelbe und rote Markierungen auf der Karte dargestellt.

Führen Sie die Maus auf sie, um den Namen der Station zu sehen.

Darauf klicken, um die Beobachtung von Wetterbeobachtungen und Prognosen zu sehen.

Um die Karte zu ändern : klicken Sie auf den grünen Tasten mit einem schwarzen Kreuz Zum Vergrößern, auf den grünen Button mit einem Gedankenstrich zu verkleinern, oder auf die grünen Pfeile für benachbarte Karten.


METAR-TAF: